createdAt,value
2022-08-17T00:02:26.140Z,18.70
2022-08-17T00:04:54.278Z,18.60
2022-08-17T00:07:21.450Z,18.60
2022-08-17T00:09:48.444Z,18.70
2022-08-17T00:12:40.695Z,18.70
2022-08-17T00:15:04.111Z,18.60
2022-08-17T00:17:31.016Z,18.60
2022-08-17T00:19:57.960Z,18.60
2022-08-17T00:22:30.824Z,18.60
2022-08-17T00:25:07.502Z,18.70
2022-08-17T00:27:35.026Z,18.60
2022-08-17T00:30:02.471Z,18.60
2022-08-17T00:33:22.893Z,18.60
2022-08-17T00:35:19.729Z,18.50
2022-08-17T00:37:46.660Z,18.50
2022-08-17T00:40:15.611Z,18.50
2022-08-17T00:42:43.771Z,18.50
2022-08-17T00:45:14.719Z,18.50
2022-08-17T00:47:42.476Z,18.50
2022-08-17T00:50:12.236Z,18.50
2022-08-17T00:52:51.589Z,18.50
2022-08-17T00:55:20.013Z,18.40
2022-08-17T00:57:55.178Z,18.40
2022-08-17T01:00:29.287Z,18.40
2022-08-17T01:03:11.934Z,18.40
2022-08-17T01:05:42.243Z,18.40
2022-08-17T01:08:13.418Z,18.40
2022-08-17T01:10:59.417Z,18.40
2022-08-17T01:13:36.740Z,18.40
2022-08-17T01:16:10.139Z,18.40
2022-08-17T01:18:38.182Z,18.30
2022-08-17T01:21:14.606Z,18.30
2022-08-17T01:23:42.455Z,18.20
2022-08-17T01:26:09.468Z,18.20
2022-08-17T01:28:55.168Z,18.20
2022-08-17T01:31:26.894Z,18.20
2022-08-17T01:33:53.907Z,18.20
2022-08-17T01:36:21.171Z,18.20
2022-08-17T01:38:48.189Z,18.20
2022-08-17T01:41:17.393Z,18.20
2022-08-17T01:43:52.270Z,18.20
2022-08-17T01:46:25.041Z,18.10
2022-08-17T01:48:52.048Z,18.10
2022-08-17T01:51:20.638Z,18.10
2022-08-17T01:53:58.307Z,18.10
2022-08-17T01:56:26.690Z,18.10
2022-08-17T01:58:54.120Z,18.10
2022-08-17T02:01:23.945Z,18.10
2022-08-17T02:03:54.525Z,18.10
2022-08-17T02:06:31.321Z,18.10
2022-08-17T02:09:16.522Z,18.10
2022-08-17T02:11:45.312Z,18.10
2022-08-17T02:14:13.778Z,18.10
2022-08-17T02:16:41.504Z,18.10
2022-08-17T02:19:12.717Z,18.10
2022-08-17T02:21:41.216Z,18.20
2022-08-17T02:24:13.401Z,18.20
2022-08-17T02:26:40.574Z,18.20
2022-08-17T02:29:07.738Z,18.20
2022-08-17T02:31:35.675Z,18.20
2022-08-17T02:34:05.162Z,18.20
2022-08-17T02:36:34.404Z,18.20
2022-08-17T02:39:03.441Z,18.20
2022-08-17T02:41:31.099Z,18.30
2022-08-17T02:43:58.702Z,18.30
2022-08-17T02:46:26.210Z,18.30
2022-08-17T02:48:53.196Z,18.20
2022-08-17T02:51:20.227Z,18.30
2022-08-17T02:53:47.222Z,18.20
2022-08-17T02:56:14.174Z,18.20
2022-08-17T02:58:41.130Z,18.20
2022-08-17T03:01:10.005Z,18.20
2022-08-17T03:03:38.308Z,18.10
2022-08-17T03:06:06.404Z,18.10
2022-08-17T03:08:33.784Z,18.10
2022-08-17T03:11:00.779Z,18.10
2022-08-17T03:13:27.983Z,18.00
2022-08-17T03:15:54.926Z,18.00
2022-08-17T03:18:25.015Z,18.00
2022-08-17T03:21:00.319Z,18.00
2022-08-17T03:23:29.459Z,17.90
2022-08-17T03:25:57.096Z,17.90
2022-08-17T03:28:24.614Z,17.90
2022-08-17T03:30:52.476Z,17.90
2022-08-17T03:33:19.446Z,17.90
2022-08-17T03:35:46.706Z,17.90
2022-08-17T03:38:15.904Z,17.90
2022-08-17T03:40:57.855Z,17.80
2022-08-17T03:43:28.919Z,17.90
2022-08-17T03:46:27.673Z,17.80
2022-08-17T03:49:24.579Z,17.90
2022-08-17T03:52:11.494Z,17.90
2022-08-17T03:54:57.952Z,17.90
2022-08-17T03:57:25.937Z,18.00
2022-08-17T03:59:54.514Z,18.00
2022-08-17T04:02:28.116Z,18.10
2022-08-17T04:04:55.226Z,18.10
2022-08-17T04:07:24.693Z,18.20
2022-08-17T04:09:51.848Z,18.20
2022-08-17T04:12:21.163Z,18.30
2022-08-17T04:14:51.653Z,18.30
2022-08-17T04:17:20.099Z,18.30
2022-08-17T04:19:47.236Z,18.30
2022-08-17T04:22:31.794Z,18.20
2022-08-17T04:25:13.763Z,18.20
2022-08-17T04:27:40.638Z,18.20
2022-08-17T04:30:08.412Z,18.30
2022-08-17T04:33:04.099Z,18.30
2022-08-17T04:35:37.175Z,18.40
2022-08-17T04:38:04.734Z,18.50
2022-08-17T04:40:50.456Z,18.60
2022-08-17T04:43:20.535Z,18.70
2022-08-17T04:45:56.113Z,18.70
2022-08-17T04:48:29.782Z,18.70
2022-08-17T04:51:04.422Z,18.70
2022-08-17T04:53:31.371Z,18.70
2022-08-17T04:55:59.321Z,18.70
2022-08-17T04:58:26.237Z,18.80
2022-08-17T05:00:53.503Z,18.90
2022-08-17T05:03:20.442Z,19.00
2022-08-17T05:05:49.686Z,19.20
2022-08-17T05:08:19.475Z,19.20
2022-08-17T05:10:47.303Z,19.20
2022-08-17T05:13:21.781Z,19.10
2022-08-17T05:15:53.363Z,19.10
2022-08-17T05:18:20.268Z,19.00
2022-08-17T05:20:47.452Z,19.10
2022-08-17T05:23:19.291Z,19.20
2022-08-17T05:25:49.238Z,19.40
2022-08-17T05:28:18.858Z,19.50
2022-08-17T05:30:51.607Z,19.60
2022-08-17T05:33:25.052Z,19.60
2022-08-17T05:35:54.625Z,19.60
2022-08-17T05:38:24.478Z,19.70
2022-08-17T05:40:52.088Z,19.80
2022-08-17T05:43:20.951Z,19.90
2022-08-17T05:46:18.765Z,19.80
2022-08-17T05:48:51.620Z,19.90
2022-08-17T05:51:36.713Z,20.10
2022-08-17T05:54:22.192Z,20.20
2022-08-17T05:57:21.004Z,20.20
2022-08-17T05:59:58.984Z,20.50
2022-08-17T06:02:47.043Z,20.70
2022-08-17T06:05:42.032Z,20.90
2022-08-17T06:08:19.368Z,21.20
2022-08-17T06:10:53.423Z,21.50
2022-08-17T06:13:34.762Z,21.60
2022-08-17T06:16:32.945Z,21.70
2022-08-17T06:19:02.456Z,22.10
2022-08-17T06:21:35.167Z,22.00
2022-08-17T06:24:45.309Z,22.00
2022-08-17T06:27:34.171Z,22.10
2022-08-17T06:30:09.484Z,22.50
2022-08-17T06:32:41.973Z,22.30
2022-08-17T06:35:11.944Z,22.20
2022-08-17T06:38:19.880Z,22.40
2022-08-17T06:41:19.657Z,22.50
2022-08-17T06:44:10.062Z,23.00
2022-08-17T06:46:38.450Z,23.20
2022-08-17T06:49:35.129Z,23.60
2022-08-17T06:52:46.025Z,23.90
2022-08-17T06:55:18.069Z,24.10
2022-08-17T07:00:23.244Z,24.10
2022-08-17T07:03:09.041Z,23.80
2022-08-17T07:05:47.781Z,23.70
2022-08-17T07:08:38.389Z,23.40
2022-08-17T07:11:15.566Z,23.20
2022-08-17T07:14:05.560Z,23.40
2022-08-17T07:16:48.641Z,23.50
2022-08-17T07:19:22.649Z,23.80
2022-08-17T07:22:16.557Z,23.50
2022-08-17T07:24:58.387Z,22.90
2022-08-17T07:27:31.662Z,23.10
2022-08-17T07:30:10.301Z,23.60
2022-08-17T07:32:45.572Z,24.10
2022-08-17T07:35:31.206Z,24.60
2022-08-17T07:38:25.008Z,24.30
2022-08-17T07:41:02.636Z,23.80
2022-08-17T07:43:56.532Z,23.00
2022-08-17T07:46:54.101Z,22.50
2022-08-17T07:49:23.058Z,22.10
2022-08-17T07:51:55.473Z,22.20
2022-08-17T07:54:39.913Z,22.10
2022-08-17T07:57:15.522Z,22.10
2022-08-17T08:00:03.541Z,22.20
2022-08-17T08:02:42.352Z,22.10
2022-08-17T08:05:46.707Z,21.70
2022-08-17T08:08:42.451Z,21.70
2022-08-17T08:11:28.202Z,21.60
2022-08-17T08:13:55.349Z,21.60
2022-08-17T08:16:29.716Z,21.70
2022-08-17T08:19:01.854Z,21.80
2022-08-17T08:21:59.099Z,21.90
2022-08-17T08:25:07.479Z,22.00
2022-08-17T08:28:27.581Z,22.00
2022-08-17T08:31:07.413Z,22.10
2022-08-17T08:33:48.099Z,21.90
2022-08-17T08:37:14.187Z,21.80
2022-08-17T08:39:42.356Z,21.90
2022-08-17T08:42:35.586Z,22.10
2022-08-17T08:45:09.549Z,22.30
2022-08-17T08:48:46.043Z,22.70
2022-08-17T08:51:34.352Z,23.00
2022-08-17T08:54:45.838Z,23.60
2022-08-17T08:57:34.490Z,24.20
2022-08-17T09:00:16.487Z,24.60
2022-08-17T09:03:03.846Z,24.60
2022-08-17T09:06:00.562Z,24.70
2022-08-17T09:08:30.234Z,24.90
2022-08-17T09:11:11.608Z,25.00
2022-08-17T09:14:21.314Z,25.40
2022-08-17T09:17:20.836Z,26.70
2022-08-17T09:20:05.970Z,27.40
2022-08-17T09:22:44.458Z,27.30
2022-08-17T09:25:21.203Z,27.10
2022-08-17T09:27:51.237Z,26.90
2022-08-17T09:30:19.461Z,26.80
2022-08-17T09:32:59.283Z,26.80
2022-08-17T09:35:39.717Z,26.20
2022-08-17T09:38:21.563Z,26.20
2022-08-17T09:41:01.904Z,26.10
2022-08-17T09:44:22.645Z,26.00
2022-08-17T09:47:04.079Z,25.80
2022-08-17T09:49:37.745Z,25.00
2022-08-17T09:52:25.972Z,24.70
2022-08-17T09:54:54.900Z,24.60
2022-08-17T09:57:32.348Z,24.80
2022-08-17T10:00:16.230Z,24.90
2022-08-17T10:03:17.229Z,25.20
2022-08-17T10:06:07.803Z,25.50
2022-08-17T10:08:39.251Z,25.90
2022-08-17T10:11:08.980Z,26.40
2022-08-17T10:13:52.667Z,26.70
2022-08-17T10:16:35.419Z,28.10
2022-08-17T10:19:18.760Z,29.30
2022-08-17T10:22:14.667Z,30.30
2022-08-17T10:25:22.548Z,32.00
2022-08-17T10:28:19.755Z,32.20
2022-08-17T10:31:16.553Z,32.40
2022-08-17T10:33:59.330Z,31.90
2022-08-17T10:36:35.608Z,30.80
2022-08-17T10:39:35.639Z,30.20
2022-08-17T10:42:33.101Z,28.90
2022-08-17T10:45:07.595Z,28.90
2022-08-17T10:48:20.846Z,29.60
2022-08-17T10:50:58.155Z,29.10
2022-08-17T10:53:43.573Z,28.30
2022-08-17T10:56:13.609Z,27.20
2022-08-17T10:58:57.846Z,26.60
2022-08-17T11:01:33.988Z,26.30
2022-08-17T11:04:25.125Z,26.20
2022-08-17T11:07:11.325Z,26.00
2022-08-17T11:10:17.250Z,25.70
2022-08-17T11:13:22.049Z,25.60
2022-08-17T11:16:14.325Z,25.70
2022-08-17T11:19:15.668Z,26.20
2022-08-17T11:22:06.747Z,26.40
2022-08-17T11:24:40.004Z,26.50
2022-08-17T11:27:30.884Z,26.50
2022-08-17T11:30:02.662Z,27.40
2022-08-17T11:32:38.125Z,28.10
2022-08-17T11:35:43.846Z,29.40
2022-08-17T11:38:16.941Z,31.70
2022-08-17T11:41:14.639Z,32.50
2022-08-17T11:43:53.384Z,32.90
2022-08-17T11:47:13.375Z,33.00
2022-08-17T11:50:02.082Z,32.40
2022-08-17T11:52:40.062Z,30.60
2022-08-17T11:55:34.045Z,29.60
2022-08-17T11:58:01.809Z,30.30
2022-08-17T12:00:51.927Z,31.00
2022-08-17T12:03:22.595Z,30.20
2022-08-17T12:05:53.597Z,29.90
2022-08-17T12:08:22.329Z,29.50
2022-08-17T12:11:12.686Z,29.60
2022-08-17T12:14:00.669Z,29.40
2022-08-17T12:16:28.017Z,30.60
2022-08-17T12:19:02.327Z,32.00
2022-08-17T12:21:42.876Z,32.50
2022-08-17T12:24:23.605Z,32.10
2022-08-17T12:26:58.581Z,31.60
2022-08-17T12:29:35.599Z,31.00
2022-08-17T12:32:07.157Z,29.40
2022-08-17T12:34:42.722Z,28.30
2022-08-17T12:37:23.572Z,27.40
2022-08-17T12:39:59.722Z,27.10
2022-08-17T12:42:39.369Z,26.80
2022-08-17T12:45:23.931Z,27.50
2022-08-17T12:48:07.763Z,28.80
2022-08-17T12:50:37.345Z,28.80
2022-08-17T12:53:10.691Z,28.50
2022-08-17T12:55:38.881Z,27.90
2022-08-17T12:58:14.491Z,27.60
2022-08-17T13:00:48.915Z,28.30
2022-08-17T13:03:25.574Z,28.80
2022-08-17T13:05:52.618Z,28.50
2022-08-17T13:08:24.202Z,28.40
2022-08-17T13:10:56.761Z,28.40
2022-08-17T13:13:27.280Z,28.80
2022-08-17T13:16:06.786Z,29.20
2022-08-17T13:18:36.655Z,29.30
2022-08-17T13:21:03.820Z,29.30
2022-08-17T13:23:32.422Z,28.60
2022-08-17T13:26:08.215Z,28.50
2022-08-17T13:28:37.424Z,28.20
2022-08-17T13:31:30.376Z,28.20
2022-08-17T13:34:16.110Z,27.90
2022-08-17T13:36:45.759Z,27.80
2022-08-17T13:39:25.201Z,27.50
2022-08-17T13:41:55.442Z,27.60
2022-08-17T13:44:37.267Z,27.70
2022-08-17T13:47:14.684Z,27.70
2022-08-17T13:49:48.914Z,28.50
2022-08-17T13:52:41.189Z,28.60
2022-08-17T13:55:18.083Z,28.90
2022-08-17T13:57:48.476Z,29.10
2022-08-17T14:00:30.163Z,29.00
2022-08-17T14:03:02.347Z,29.00
2022-08-17T14:05:31.487Z,28.70
2022-08-17T14:08:06.678Z,28.80
2022-08-17T14:10:38.698Z,28.90
2022-08-17T14:13:06.907Z,28.90
2022-08-17T14:15:54.627Z,28.90
2022-08-17T14:18:49.817Z,28.30
2022-08-17T14:21:09.684Z,27.60
2022-08-17T14:23:37.824Z,27.40
2022-08-17T14:26:05.760Z,27.20
2022-08-17T14:28:32.750Z,27.20
2022-08-17T14:31:03.121Z,27.00
2022-08-17T14:33:30.132Z,26.90
2022-08-17T14:35:57.710Z,26.90
2022-08-17T14:38:25.254Z,26.80
2022-08-17T14:40:52.639Z,26.70
2022-08-17T14:43:20.523Z,26.80
2022-08-17T14:45:47.543Z,26.80
2022-08-17T14:48:14.533Z,26.70
2022-08-17T14:50:43.055Z,26.60
2022-08-17T14:53:13.494Z,26.60
2022-08-17T14:55:40.731Z,26.30
2022-08-17T14:58:09.405Z,26.00
2022-08-17T15:00:37.295Z,26.10
2022-08-17T15:03:11.583Z,26.00
2022-08-17T15:05:39.629Z,25.90
2022-08-17T15:08:08.298Z,25.80
2022-08-17T15:10:36.267Z,25.70
2022-08-17T15:13:21.094Z,25.70
2022-08-17T15:15:49.364Z,25.70
2022-08-17T15:18:16.526Z,25.60
2022-08-17T15:20:44.704Z,25.60
2022-08-17T15:23:23.763Z,25.60
2022-08-17T15:25:52.819Z,25.50
2022-08-17T15:28:22.767Z,25.50
2022-08-17T15:30:50.986Z,25.70
2022-08-17T15:33:24.224Z,25.80
2022-08-17T15:35:53.557Z,25.60
2022-08-17T15:38:20.474Z,25.90
2022-08-17T15:40:50.248Z,26.50
2022-08-17T15:43:26.461Z,26.90
2022-08-17T15:46:04.267Z,27.00
2022-08-17T15:48:43.415Z,26.90
2022-08-17T15:51:26.285Z,26.60
2022-08-17T15:53:59.230Z,26.20
2022-08-17T15:56:27.597Z,25.90
2022-08-17T15:58:55.328Z,25.50
2022-08-17T16:01:57.411Z,25.50
2022-08-17T16:04:29.582Z,25.50
2022-08-17T16:06:57.668Z,25.60
2022-08-17T16:09:24.620Z,25.30
2022-08-17T16:11:54.257Z,25.30
2022-08-17T16:14:24.086Z,25.20
2022-08-17T16:16:51.523Z,25.10
2022-08-17T16:19:18.597Z,25.10
2022-08-17T16:21:45.545Z,25.00
2022-08-17T16:24:13.637Z,24.90
2022-08-17T16:26:42.411Z,24.70
2022-08-17T16:29:09.667Z,24.70
2022-08-17T16:31:37.828Z,24.60
2022-08-17T16:34:18.025Z,24.50
2022-08-17T16:36:55.029Z,24.40
2022-08-17T16:39:27.605Z,24.30
2022-08-17T16:41:56.150Z,24.20
2022-08-17T16:44:23.975Z,24.30
2022-08-17T16:46:51.248Z,24.20
2022-08-17T16:49:35.728Z,24.30
2022-08-17T16:52:06.949Z,24.30
2022-08-17T16:54:35.498Z,24.30
2022-08-17T16:57:05.135Z,24.30
2022-08-17T16:59:42.120Z,24.40
2022-08-17T17:02:23.411Z,24.50
2022-08-17T17:05:03.123Z,24.60
2022-08-17T17:07:36.275Z,24.60
2022-08-17T17:10:26.840Z,24.60
2022-08-17T17:13:01.067Z,24.50
2022-08-17T17:16:07.948Z,24.40
2022-08-17T17:18:43.062Z,24.20
2022-08-17T17:21:16.982Z,24.10
2022-08-17T17:23:59.472Z,23.90
2022-08-17T17:27:07.737Z,23.80
2022-08-17T17:29:47.855Z,23.70
2022-08-17T17:32:56.240Z,23.60
2022-08-17T17:35:32.485Z,23.50
2022-08-17T17:38:06.094Z,23.50
2022-08-17T17:40:44.696Z,23.50
2022-08-17T17:43:37.694Z,23.50
2022-08-17T17:46:26.513Z,23.30
2022-08-17T17:48:53.885Z,23.20
2022-08-17T17:52:07.777Z,23.20
2022-08-17T17:54:37.338Z,23.00
2022-08-17T17:57:39.247Z,22.90
2022-08-17T18:00:25.231Z,22.80
2022-08-17T18:03:23.300Z,22.70
2022-08-17T18:06:02.707Z,22.70
2022-08-17T18:08:52.889Z,22.60
2022-08-17T18:11:59.095Z,22.50
2022-08-17T18:14:33.129Z,22.40
2022-08-17T18:17:01.873Z,22.30
2022-08-17T18:19:31.156Z,22.10
2022-08-17T18:22:25.415Z,21.90
2022-08-17T18:24:56.229Z,21.70
2022-08-17T18:27:55.826Z,21.40
2022-08-17T18:30:28.992Z,21.30
2022-08-17T18:33:23.725Z,21.10
2022-08-17T18:35:58.755Z,20.90
2022-08-17T18:38:43.473Z,20.60
2022-08-17T18:41:30.693Z,20.30
2022-08-17T18:44:16.093Z,20.20
2022-08-17T18:46:44.081Z,20.10
2022-08-17T18:49:20.161Z,20.00
2022-08-17T18:51:47.158Z,20.00
2022-08-17T18:54:24.006Z,19.80
2022-08-17T18:56:57.154Z,19.70
2022-08-17T18:59:39.294Z,19.60
2022-08-17T19:02:39.030Z,19.50
2022-08-17T19:05:30.061Z,19.40
2022-08-17T19:08:26.087Z,19.30
2022-08-17T19:10:58.763Z,19.20
2022-08-17T19:13:37.442Z,19.20
2022-08-17T19:16:34.450Z,19.20
2022-08-17T19:19:41.596Z,19.10
2022-08-17T19:22:29.187Z,19.10
2022-08-17T19:25:11.077Z,19.00
2022-08-17T19:27:58.122Z,18.90
2022-08-17T19:30:25.925Z,18.90
2022-08-17T19:32:53.193Z,18.90
2022-08-17T19:35:24.840Z,18.90
2022-08-17T19:38:37.887Z,18.90
2022-08-17T19:41:29.263Z,18.80
2022-08-17T19:44:13.677Z,18.70
2022-08-17T19:46:48.551Z,18.50
2022-08-17T19:49:57.548Z,18.40
2022-08-17T19:52:55.931Z,18.40
2022-08-17T19:55:43.567Z,18.30
2022-08-17T19:58:33.406Z,18.20
2022-08-17T20:01:01.165Z,18.10
2022-08-17T20:03:35.304Z,18.10
2022-08-17T20:06:13.013Z,18.00
2022-08-17T20:08:45.775Z,18.00
2022-08-17T20:11:28.074Z,18.00
2022-08-17T20:14:09.786Z,18.00
2022-08-17T20:16:38.272Z,17.90
2022-08-17T20:19:51.938Z,17.80
2022-08-17T20:22:46.096Z,17.80
2022-08-17T20:25:31.600Z,17.80
2022-08-17T20:28:17.420Z,17.70
2022-08-17T20:30:45.171Z,17.60
2022-08-17T20:33:36.988Z,17.60
2022-08-17T20:36:22.612Z,17.50
2022-08-17T20:38:53.976Z,17.50
2022-08-17T20:41:24.203Z,17.50
2022-08-17T20:44:06.100Z,17.50
2022-08-17T20:46:38.851Z,17.50
2022-08-17T20:49:08.868Z,17.50
2022-08-17T20:52:01.331Z,17.40
2022-08-17T20:55:00.125Z,17.40
2022-08-17T20:57:33.000Z,17.30
2022-08-17T21:00:14.145Z,17.20
2022-08-17T21:02:44.600Z,17.20
2022-08-17T21:05:59.913Z,17.20
2022-08-17T21:08:32.235Z,17.20
2022-08-17T21:11:01.342Z,17.10
2022-08-17T21:14:10.417Z,17.00
2022-08-17T21:16:45.097Z,17.00
2022-08-17T21:19:31.291Z,17.00
2022-08-17T21:22:21.401Z,16.90
2022-08-17T21:25:12.151Z,16.90
2022-08-17T21:28:07.275Z,16.80
2022-08-17T21:30:41.005Z,16.80
2022-08-17T21:33:18.642Z,16.60
2022-08-17T21:35:49.267Z,16.60
2022-08-17T21:38:19.953Z,16.60
2022-08-17T21:40:51.626Z,16.60
2022-08-17T21:43:24.477Z,16.50
2022-08-17T21:45:59.810Z,16.40
2022-08-17T21:48:29.381Z,16.30
2022-08-17T21:51:14.685Z,16.30
2022-08-17T21:53:47.099Z,16.20
2022-08-17T21:56:30.333Z,16.10
2022-08-17T21:59:25.781Z,16.10
2022-08-17T22:02:02.122Z,16.10
2022-08-17T22:04:35.184Z,16.10
2022-08-17T22:07:06.227Z,16.10
2022-08-17T22:09:42.931Z,16.10
2022-08-17T22:12:17.364Z,16.10
2022-08-17T22:14:55.907Z,16.00
2022-08-17T22:17:27.279Z,16.00
2022-08-17T22:20:01.154Z,16.00
2022-08-17T22:23:18.744Z,16.10
2022-08-17T22:26:12.676Z,16.00
2022-08-17T22:28:45.791Z,16.00
2022-08-17T22:31:15.807Z,16.00
2022-08-17T22:33:48.007Z,16.00
2022-08-17T22:36:34.056Z,16.00
2022-08-17T22:39:08.602Z,16.00
2022-08-17T22:41:40.533Z,16.00
2022-08-17T22:44:14.234Z,16.00
2022-08-17T22:47:20.147Z,16.00
2022-08-17T22:49:58.067Z,15.90
2022-08-17T22:52:57.423Z,15.90
2022-08-17T22:55:44.090Z,15.90
2022-08-17T22:58:32.083Z,15.80
2022-08-17T23:01:36.995Z,15.80
2022-08-17T23:04:16.064Z,15.80
2022-08-17T23:06:43.000Z,15.80
2022-08-17T23:09:09.880Z,15.80
2022-08-17T23:11:49.202Z,15.80
2022-08-17T23:14:21.155Z,15.80
2022-08-17T23:16:50.218Z,15.80
2022-08-17T23:19:20.222Z,15.80
2022-08-17T23:21:48.910Z,15.70
2022-08-17T23:24:23.663Z,15.70
2022-08-17T23:26:50.571Z,15.70
2022-08-17T23:29:17.651Z,15.70
2022-08-17T23:31:44.555Z,15.70
2022-08-17T23:34:14.692Z,15.60
2022-08-17T23:36:45.404Z,15.60
2022-08-17T23:39:12.455Z,15.60
2022-08-17T23:41:40.217Z,15.60
2022-08-17T23:44:07.767Z,15.50
2022-08-17T23:46:35.275Z,15.50
2022-08-17T23:49:03.266Z,15.50
2022-08-17T23:51:38.450Z,15.50
2022-08-17T23:54:12.553Z,15.40
2022-08-17T23:56:48.503Z,15.40
2022-08-17T23:59:18.385Z,15.30
